createdAt,value
2019-03-23T00:01:12.942Z,10.65
2019-03-23T00:03:46.992Z,9.58
2019-03-23T00:06:30.263Z,6.30
2019-03-23T00:08:56.382Z,8.58
2019-03-23T00:11:30.058Z,7.28
2019-03-23T00:14:03.801Z,6.20
2019-03-23T00:16:37.842Z,5.87
2019-03-23T00:19:11.848Z,6.12
2019-03-23T00:21:47.128Z,4.95
2019-03-23T00:24:22.382Z,5.35
2019-03-23T00:26:55.966Z,5.70
2019-03-23T00:29:30.196Z,6.00
2019-03-23T00:32:05.275Z,5.05
2019-03-23T00:34:38.752Z,6.33
2019-03-23T00:37:12.785Z,5.00
2019-03-23T00:39:46.360Z,5.45
2019-03-23T00:42:20.892Z,4.75
2019-03-23T00:44:54.928Z,4.87
2019-03-23T00:47:28.520Z,4.75
2019-03-23T00:50:03.019Z,4.90
2019-03-23T00:52:38.035Z,5.25
2019-03-23T00:55:11.698Z,4.92
2019-03-23T00:57:45.083Z,4.83
2019-03-23T01:00:20.234Z,4.83
2019-03-23T01:02:55.266Z,4.80
2019-03-23T01:05:29.691Z,5.67
2019-03-23T01:08:03.556Z,4.62
2019-03-23T01:10:39.637Z,5.17
2019-03-23T01:13:13.313Z,5.28
2019-03-23T01:15:49.591Z,4.92
2019-03-23T01:18:25.174Z,5.15
2019-03-23T01:21:01.343Z,4.58
2019-03-23T01:23:35.111Z,5.42
2019-03-23T01:26:08.822Z,4.90
2019-03-23T01:28:42.936Z,5.28
2019-03-23T01:31:16.534Z,5.10
2019-03-23T01:33:50.070Z,5.87
2019-03-23T01:36:25.242Z,4.60
2019-03-23T01:38:58.403Z,5.20
2019-03-23T01:41:32.879Z,5.05
2019-03-23T01:44:06.627Z,5.50
2019-03-23T01:46:40.813Z,5.80
2019-03-23T01:49:15.794Z,6.10
2019-03-23T01:51:49.350Z,6.37
2019-03-23T01:54:23.687Z,5.90
2019-03-23T01:56:57.598Z,6.47
2019-03-23T01:59:31.092Z,6.53
2019-03-23T02:02:05.129Z,7.70
2019-03-23T02:04:38.722Z,7.50
2019-03-23T02:07:14.012Z,10.20
2019-03-23T02:09:47.483Z,12.23
2019-03-23T02:12:21.681Z,12.00
2019-03-23T02:14:54.918Z,14.33
2019-03-23T02:17:28.756Z,16.25
2019-03-23T02:20:02.387Z,16.87
2019-03-23T02:22:36.558Z,19.77
2019-03-23T02:25:12.036Z,20.72
2019-03-23T02:27:45.603Z,18.73
2019-03-23T02:30:19.331Z,20.45
2019-03-23T02:32:53.288Z,22.40
2019-03-23T02:35:27.240Z,22.40
2019-03-23T02:38:01.676Z,22.80
2019-03-23T02:40:36.484Z,23.32
2019-03-23T02:43:10.708Z,24.77
2019-03-23T02:45:44.370Z,24.82
2019-03-23T02:48:18.276Z,24.90
2019-03-23T02:50:52.332Z,27.50
2019-03-23T02:53:25.534Z,26.42
2019-03-23T02:55:59.833Z,27.32
2019-03-23T02:58:33.428Z,30.95
2019-03-23T03:01:07.251Z,31.50
2019-03-23T03:03:41.272Z,28.20
2019-03-23T03:06:15.186Z,32.03
2019-03-23T03:08:48.435Z,32.53
2019-03-23T03:11:21.578Z,32.48
2019-03-23T03:13:55.501Z,34.67
2019-03-23T03:16:29.432Z,36.42
2019-03-23T03:19:03.262Z,34.55
2019-03-23T03:21:36.567Z,34.53
2019-03-23T03:24:10.734Z,36.55
2019-03-23T03:26:44.374Z,38.10
2019-03-23T03:29:18.213Z,40.65
2019-03-23T03:31:52.537Z,41.05
2019-03-23T03:34:26.023Z,42.27
2019-03-23T03:36:59.927Z,41.18
2019-03-23T03:39:33.866Z,44.25
2019-03-23T03:42:07.821Z,45.65
2019-03-23T03:44:41.548Z,50.30
2019-03-23T03:47:15.730Z,46.23
2019-03-23T03:49:49.672Z,45.58
2019-03-23T03:52:23.720Z,47.03
2019-03-23T03:54:56.983Z,45.25
2019-03-23T03:57:31.005Z,48.35
2019-03-23T04:00:06.195Z,51.08
2019-03-23T04:02:40.748Z,52.13
2019-03-23T04:05:15.074Z,52.75
2019-03-23T04:07:49.072Z,54.50
2019-03-23T04:10:24.048Z,56.60
2019-03-23T04:12:58.469Z,55.63
2019-03-23T04:15:32.486Z,56.50
2019-03-23T04:18:07.615Z,55.30
2019-03-23T04:20:41.331Z,60.88
2019-03-23T04:23:15.247Z,59.88
2019-03-23T04:25:48.390Z,57.10
2019-03-23T04:28:22.269Z,60.20
2019-03-23T04:30:56.753Z,57.58
2019-03-23T04:33:29.949Z,58.73
2019-03-23T04:36:03.559Z,61.23
2019-03-23T04:38:37.813Z,55.55
2019-03-23T04:41:11.924Z,56.35
2019-03-23T04:43:46.348Z,58.00
2019-03-23T04:46:20.169Z,57.95
2019-03-23T04:48:54.015Z,58.87
2019-03-23T04:51:27.654Z,60.17
2019-03-23T04:54:01.090Z,64.12
2019-03-23T04:56:35.112Z,65.57
2019-03-23T04:59:08.595Z,57.30
2019-03-23T05:01:42.714Z,64.85
2019-03-23T05:04:16.306Z,60.20
2019-03-23T05:06:50.345Z,58.15
2019-03-23T05:09:24.580Z,53.87
2019-03-23T05:11:58.560Z,52.60
2019-03-23T05:14:32.223Z,53.02
2019-03-23T05:17:05.788Z,52.90
2019-03-23T05:19:39.871Z,51.23
2019-03-23T05:22:12.969Z,54.75
2019-03-23T05:24:46.877Z,52.05
2019-03-23T05:27:20.147Z,50.35
2019-03-23T05:29:53.655Z,50.92
2019-03-23T05:32:27.179Z,49.33
2019-03-23T05:35:01.011Z,47.75
2019-03-23T05:37:34.689Z,50.55
2019-03-23T05:40:08.886Z,53.45
2019-03-23T05:42:42.514Z,53.98
2019-03-23T05:45:16.857Z,49.77
2019-03-23T05:47:51.203Z,53.13
2019-03-23T05:50:25.422Z,47.88
2019-03-23T05:52:58.654Z,45.43
2019-03-23T05:55:32.898Z,41.65
2019-03-23T05:58:06.582Z,43.30
2019-03-23T06:00:40.150Z,45.23
2019-03-23T06:03:13.268Z,45.58
2019-03-23T06:05:47.260Z,43.10
2019-03-23T06:08:20.443Z,40.50
2019-03-23T06:10:54.450Z,40.73
2019-03-23T06:13:27.675Z,42.17
2019-03-23T06:16:01.676Z,41.15
2019-03-23T06:18:35.390Z,44.70
2019-03-23T06:21:08.970Z,44.55
2019-03-23T06:23:42.616Z,42.70
2019-03-23T06:26:16.232Z,40.55
2019-03-23T06:28:50.001Z,43.60
2019-03-23T06:31:24.045Z,43.92
2019-03-23T06:33:58.039Z,41.58
2019-03-23T06:36:31.628Z,44.00
2019-03-23T06:39:06.863Z,44.45
2019-03-23T06:41:40.762Z,41.18
2019-03-23T06:44:14.457Z,45.60
2019-03-23T06:46:47.547Z,44.20
2019-03-23T06:49:21.072Z,48.50
2019-03-23T06:51:54.360Z,49.33
2019-03-23T06:54:28.481Z,48.10
2019-03-23T06:57:02.011Z,45.85
2019-03-23T06:59:35.696Z,47.58
2019-03-23T07:02:09.308Z,48.30
2019-03-23T07:04:43.321Z,45.05
2019-03-23T07:07:18.216Z,44.85
2019-03-23T07:09:51.918Z,46.90
2019-03-23T07:12:25.567Z,47.15
2019-03-23T07:14:59.855Z,48.90
2019-03-23T07:17:33.347Z,52.00
2019-03-23T07:20:07.986Z,51.37
2019-03-23T07:22:41.749Z,53.42
2019-03-23T07:25:15.396Z,54.40
2019-03-23T07:27:49.420Z,53.10
2019-03-23T07:30:23.289Z,52.98
2019-03-23T07:32:56.704Z,53.58
2019-03-23T07:35:32.162Z,49.55
2019-03-23T07:38:05.896Z,47.85
2019-03-23T07:40:39.483Z,47.48
2019-03-23T07:43:13.229Z,48.60
2019-03-23T07:45:47.180Z,49.95
2019-03-23T07:48:21.367Z,45.10
2019-03-23T07:50:57.536Z,48.65
2019-03-23T07:53:31.161Z,46.45
2019-03-23T07:56:05.274Z,42.95
2019-03-23T07:58:38.952Z,44.60
2019-03-23T08:01:12.956Z,42.40
2019-03-23T08:03:46.678Z,40.67
2019-03-23T08:06:21.017Z,44.88
2019-03-23T08:08:55.860Z,41.35
2019-03-23T08:11:29.791Z,43.92
2019-03-23T08:14:03.785Z,40.52
2019-03-23T08:16:38.231Z,40.50
2019-03-23T08:19:12.417Z,42.25
2019-03-23T08:21:46.114Z,41.40
2019-03-23T08:24:19.306Z,39.73
2019-03-23T08:26:52.484Z,40.80
2019-03-23T08:29:26.743Z,43.87
2019-03-23T08:32:00.504Z,40.20
2019-03-23T08:34:34.207Z,39.63
2019-03-23T08:37:08.219Z,41.58
2019-03-23T08:39:48.508Z,40.58
2019-03-23T08:42:19.341Z,39.90
2019-03-23T08:44:53.545Z,41.30
2019-03-23T08:47:27.508Z,38.15
2019-03-23T08:50:01.149Z,38.48
2019-03-23T08:52:35.247Z,38.63
2019-03-23T08:55:08.653Z,38.23
2019-03-23T08:57:42.367Z,39.53
2019-03-23T09:00:18.347Z,39.08
2019-03-23T09:02:52.329Z,38.53
2019-03-23T09:05:26.031Z,35.17
2019-03-23T09:08:00.133Z,41.02
2019-03-23T09:10:33.854Z,36.73
2019-03-23T09:13:07.857Z,37.48
2019-03-23T09:15:42.024Z,40.75
2019-03-23T09:18:15.433Z,37.65
2019-03-23T09:20:49.156Z,40.05
2019-03-23T09:23:23.149Z,36.65
2019-03-23T09:25:57.241Z,34.05
2019-03-23T09:28:31.693Z,35.90
2019-03-23T09:31:05.922Z,37.28
2019-03-23T09:33:40.326Z,32.75
2019-03-23T09:36:14.256Z,35.23
2019-03-23T09:38:48.224Z,35.98
2019-03-23T09:41:21.411Z,34.38
2019-03-23T09:43:54.666Z,35.70
2019-03-23T09:46:28.358Z,32.78
2019-03-23T09:49:02.482Z,36.30
2019-03-23T09:51:36.660Z,33.67
2019-03-23T09:54:09.779Z,34.43
2019-03-23T09:56:43.567Z,31.82
2019-03-23T09:59:18.038Z,35.63
2019-03-23T10:01:52.259Z,36.10
2019-03-23T10:04:25.950Z,35.92
2019-03-23T10:07:00.004Z,35.45
2019-03-23T10:09:34.485Z,33.30
2019-03-23T10:12:08.944Z,35.25
2019-03-23T10:14:43.286Z,34.30
2019-03-23T10:17:17.695Z,34.38
2019-03-23T10:19:58.338Z,36.13
2019-03-23T10:22:33.179Z,34.75
2019-03-23T10:25:08.020Z,34.13
2019-03-23T10:27:41.401Z,35.33
2019-03-23T10:30:16.009Z,34.10
2019-03-23T10:32:49.952Z,35.85
2019-03-23T10:35:24.033Z,37.60
2019-03-23T10:37:58.119Z,36.42
2019-03-23T10:40:32.916Z,33.83
2019-03-23T10:43:07.198Z,36.48
2019-03-23T10:45:44.277Z,34.98
2019-03-23T10:48:16.626Z,32.75
2019-03-23T10:50:50.459Z,34.38
2019-03-23T10:53:24.541Z,34.73
2019-03-23T10:55:57.619Z,33.70
2019-03-23T10:58:31.327Z,34.18
2019-03-23T11:01:05.042Z,35.68
2019-03-23T11:03:38.748Z,37.00
2019-03-23T11:06:12.663Z,37.85
2019-03-23T11:08:46.684Z,37.88
2019-03-23T11:11:21.038Z,37.93
2019-03-23T11:13:55.027Z,35.25
2019-03-23T11:16:28.274Z,36.90
2019-03-23T11:19:02.015Z,36.35
2019-03-23T11:21:35.636Z,37.23
2019-03-23T11:24:09.723Z,38.15
2019-03-23T11:26:43.791Z,35.40
2019-03-23T11:29:17.029Z,37.38
2019-03-23T11:31:50.836Z,34.63
2019-03-23T11:34:25.058Z,37.33
2019-03-23T11:36:58.915Z,36.20
2019-03-23T11:39:32.855Z,34.83
2019-03-23T11:42:06.800Z,36.00
2019-03-23T11:44:40.130Z,37.00
2019-03-23T11:47:14.378Z,35.90
2019-03-23T11:49:48.394Z,33.77
2019-03-23T11:52:22.419Z,36.47
2019-03-23T11:54:56.027Z,35.53
2019-03-23T11:57:30.153Z,37.03
2019-03-23T12:00:04.148Z,36.13
2019-03-23T12:02:38.254Z,36.73
2019-03-23T12:05:11.487Z,39.07
2019-03-23T12:07:45.681Z,35.40
2019-03-23T12:10:19.761Z,36.53
2019-03-23T12:12:54.105Z,38.27
2019-03-23T12:15:30.244Z,36.07
2019-03-23T12:18:04.484Z,38.30
2019-03-23T12:20:38.288Z,36.87
2019-03-23T12:23:11.573Z,37.10
2019-03-23T12:25:45.543Z,37.60
2019-03-23T12:28:21.027Z,34.10
2019-03-23T12:30:55.594Z,35.50
2019-03-23T12:33:31.310Z,35.37
2019-03-23T12:36:05.281Z,37.00
2019-03-23T12:38:38.679Z,33.53
2019-03-23T12:41:22.724Z,36.97
2019-03-23T12:43:51.293Z,36.60
2019-03-23T12:46:26.567Z,38.10
2019-03-23T12:49:00.545Z,37.60
2019-03-23T12:51:36.858Z,37.80
2019-03-23T12:54:10.728Z,40.10
2019-03-23T12:56:44.330Z,38.10
2019-03-23T12:59:18.090Z,36.43
2019-03-23T13:01:52.093Z,37.83
2019-03-23T13:04:26.184Z,36.07
2019-03-23T13:07:00.208Z,37.90
2019-03-23T13:09:35.476Z,38.87
2019-03-23T13:12:09.162Z,36.67
2019-03-23T13:14:43.552Z,38.97
2019-03-23T13:17:19.942Z,40.27
2019-03-23T13:19:54.352Z,36.97
2019-03-23T13:22:28.074Z,38.07
2019-03-23T13:25:01.401Z,37.07
2019-03-23T13:27:35.716Z,35.10
2019-03-23T13:30:10.440Z,35.83
2019-03-23T13:32:44.616Z,36.27
2019-03-23T13:35:17.744Z,36.10
2019-03-23T13:37:51.553Z,36.73
2019-03-23T13:40:25.509Z,37.17
2019-03-23T13:42:59.945Z,36.17
2019-03-23T13:45:42.399Z,34.47
2019-03-23T13:48:09.189Z,37.63
2019-03-23T13:50:42.842Z,35.50
2019-03-23T13:53:17.131Z,34.10
2019-03-23T13:55:51.102Z,33.93
2019-03-23T13:58:24.658Z,35.80
2019-03-23T14:00:58.309Z,38.87
2019-03-23T14:03:31.534Z,36.33
2019-03-23T14:06:05.134Z,34.37
2019-03-23T14:08:39.375Z,38.93
2019-03-23T14:11:13.386Z,36.20
2019-03-23T14:13:50.257Z,36.10
2019-03-23T14:16:24.148Z,39.65
2019-03-23T14:18:58.586Z,39.48
2019-03-23T14:21:32.273Z,40.10
2019-03-23T14:24:06.311Z,38.25
2019-03-23T14:26:40.752Z,36.17
2019-03-23T14:29:14.048Z,36.40
2019-03-23T14:31:48.067Z,34.78
2019-03-23T14:34:21.304Z,36.30
2019-03-23T14:36:57.268Z,37.65
2019-03-23T14:39:31.506Z,38.65
2019-03-23T14:42:05.395Z,36.90
2019-03-23T14:44:39.154Z,35.50
2019-03-23T14:47:13.349Z,34.75
2019-03-23T14:49:47.462Z,38.28
2019-03-23T14:52:21.317Z,35.55
2019-03-23T14:54:55.957Z,34.78
2019-03-23T14:57:29.931Z,35.03
2019-03-23T15:00:04.617Z,36.55
2019-03-23T15:02:38.393Z,35.05
2019-03-23T15:05:12.073Z,35.65
2019-03-23T15:07:46.566Z,35.65
2019-03-23T15:10:19.891Z,35.20
2019-03-23T15:12:53.528Z,36.98
2019-03-23T15:15:27.092Z,37.58
2019-03-23T15:18:01.175Z,35.13
2019-03-23T15:20:35.289Z,33.50
2019-03-23T15:23:08.881Z,36.60
2019-03-23T15:25:42.951Z,37.15
2019-03-23T15:28:17.244Z,37.50
2019-03-23T15:30:51.360Z,36.20
2019-03-23T15:33:25.069Z,34.67
2019-03-23T15:35:59.578Z,34.88
2019-03-23T15:38:33.457Z,33.65
2019-03-23T15:41:07.669Z,34.58
2019-03-23T15:43:41.685Z,34.50
2019-03-23T15:46:15.355Z,34.13
2019-03-23T15:48:49.485Z,33.78
2019-03-23T15:51:23.495Z,33.20
2019-03-23T15:53:57.574Z,31.68
2019-03-23T15:56:31.231Z,30.12
2019-03-23T15:59:05.366Z,32.17
2019-03-23T16:01:39.388Z,29.48
2019-03-23T16:04:12.962Z,33.20
2019-03-23T16:06:47.109Z,31.95
2019-03-23T16:09:21.174Z,30.80
2019-03-23T16:11:55.259Z,30.23
2019-03-23T16:14:29.685Z,29.63
2019-03-23T16:17:05.156Z,30.37
2019-03-23T16:19:40.243Z,32.20
2019-03-23T16:22:13.359Z,31.37
2019-03-23T16:24:47.300Z,28.67
2019-03-23T16:27:21.849Z,31.48
2019-03-23T16:29:55.905Z,31.52
2019-03-23T16:32:29.634Z,31.48
2019-03-23T16:35:03.664Z,29.67
2019-03-23T16:37:37.357Z,28.32
2019-03-23T16:40:11.717Z,30.02
2019-03-23T16:42:45.843Z,30.90
2019-03-23T16:45:19.302Z,32.40
2019-03-23T16:47:56.360Z,32.08
2019-03-23T16:50:32.008Z,30.82
2019-03-23T16:53:07.607Z,31.48
2019-03-23T16:55:41.554Z,32.30
2019-03-23T16:58:16.282Z,31.42
2019-03-23T17:00:50.691Z,34.23
2019-03-23T17:03:24.509Z,38.28
2019-03-23T17:05:58.334Z,38.10
2019-03-23T17:08:32.383Z,37.08
2019-03-23T17:11:05.624Z,35.73
2019-03-23T17:13:40.196Z,35.48
2019-03-23T17:16:13.876Z,37.03
2019-03-23T17:18:47.533Z,37.53
2019-03-23T17:21:23.016Z,35.68
2019-03-23T17:23:57.055Z,35.52
2019-03-23T17:26:31.427Z,38.40
2019-03-23T17:29:05.893Z,35.10
2019-03-23T17:31:40.021Z,35.33
2019-03-23T17:34:14.440Z,34.80
2019-03-23T17:36:48.103Z,35.40
2019-03-23T17:39:22.656Z,34.60
2019-03-23T17:41:56.849Z,33.58
2019-03-23T17:44:31.970Z,32.75
2019-03-23T17:47:05.309Z,32.40
2019-03-23T17:49:39.405Z,31.75
2019-03-23T17:52:13.204Z,25.75
2019-03-23T17:54:46.819Z,26.45
2019-03-23T17:57:20.104Z,24.45
2019-03-23T17:59:54.390Z,26.80
2019-03-23T18:02:28.180Z,26.52
2019-03-23T18:05:02.389Z,27.07
2019-03-23T18:07:37.115Z,28.83
2019-03-23T18:10:10.983Z,27.13
2019-03-23T18:12:45.180Z,26.33
2019-03-23T18:15:19.662Z,26.15
2019-03-23T18:17:53.240Z,26.40
2019-03-23T18:20:27.729Z,24.05
2019-03-23T18:23:01.442Z,22.50
2019-03-23T18:25:35.470Z,22.98
2019-03-23T18:28:09.563Z,22.87
2019-03-23T18:30:43.850Z,24.35
2019-03-23T18:33:17.786Z,23.52
2019-03-23T18:35:52.040Z,19.32
2019-03-23T18:38:26.597Z,19.98
2019-03-23T18:40:59.848Z,19.05
2019-03-23T18:43:34.014Z,17.90
2019-03-23T18:46:07.801Z,16.55
2019-03-23T18:48:41.652Z,16.45
2019-03-23T18:51:15.806Z,14.38
2019-03-23T18:53:50.132Z,13.90
2019-03-23T18:56:22.973Z,13.18
2019-03-23T18:58:56.780Z,14.33
2019-03-23T19:01:30.691Z,12.95
2019-03-23T19:04:03.950Z,12.00
2019-03-23T19:06:38.300Z,12.50
2019-03-23T19:09:12.035Z,11.30
2019-03-23T19:11:45.611Z,11.30
2019-03-23T19:14:20.132Z,10.93
2019-03-23T19:16:54.132Z,12.00
2019-03-23T19:19:27.768Z,11.38
2019-03-23T19:22:01.747Z,10.35
2019-03-23T19:24:35.337Z,9.65
2019-03-23T19:27:09.081Z,12.30
2019-03-23T19:29:43.265Z,12.25
2019-03-23T19:32:17.518Z,11.12
2019-03-23T19:34:50.756Z,9.73
2019-03-23T19:37:24.515Z,11.48
2019-03-23T19:39:58.613Z,10.60
2019-03-23T19:42:33.128Z,11.43
2019-03-23T19:45:07.291Z,11.25
2019-03-23T19:47:41.845Z,10.28
2019-03-23T19:50:15.875Z,11.63
2019-03-23T19:52:50.079Z,11.00
2019-03-23T19:55:24.207Z,11.78
2019-03-23T19:57:57.516Z,10.68
2019-03-23T20:00:31.950Z,10.85
2019-03-23T20:03:05.949Z,10.80
2019-03-23T20:05:39.841Z,11.38
2019-03-23T20:08:12.751Z,11.43
2019-03-23T20:10:46.423Z,11.97
2019-03-23T20:13:20.157Z,11.45
2019-03-23T20:15:54.286Z,11.43
2019-03-23T20:18:28.722Z,12.25
2019-03-23T20:21:02.745Z,12.37
2019-03-23T20:23:36.479Z,11.03
2019-03-23T20:26:10.475Z,13.28
2019-03-23T20:28:44.306Z,13.30
2019-03-23T20:31:18.444Z,13.70
2019-03-23T20:33:53.081Z,14.05
2019-03-23T20:36:27.165Z,14.75
2019-03-23T20:39:01.515Z,14.90
2019-03-23T20:41:37.137Z,14.07
2019-03-23T20:44:11.276Z,13.40
2019-03-23T20:46:45.056Z,15.72
